createdAt,value
2023-05-19T00:00:57.929Z,9.80
2023-05-19T00:03:24.988Z,9.80
2023-05-19T00:05:54.521Z,9.80
2023-05-19T00:08:24.607Z,9.80
2023-05-19T00:10:51.618Z,9.80
2023-05-19T00:13:18.493Z,9.80
2023-05-19T00:15:45.630Z,9.70
2023-05-19T00:18:14.046Z,9.70
2023-05-19T00:20:41.346Z,9.80
2023-05-19T00:23:08.454Z,9.70
2023-05-19T00:25:35.181Z,9.60
2023-05-19T00:28:03.016Z,9.60
2023-05-19T00:30:30.552Z,9.60
2023-05-19T00:32:57.604Z,9.60
2023-05-19T00:35:24.569Z,9.60
2023-05-19T00:37:51.288Z,9.60
2023-05-19T00:40:18.106Z,9.60
2023-05-19T00:42:44.877Z,9.60
2023-05-19T00:45:11.673Z,9.60
2023-05-19T00:47:39.071Z,9.50
2023-05-19T00:50:06.222Z,9.50
2023-05-19T00:52:32.981Z,9.60
2023-05-19T00:54:59.849Z,9.60
2023-05-19T00:57:27.193Z,9.50
2023-05-19T00:59:54.596Z,9.50
2023-05-19T01:02:21.603Z,9.60
2023-05-19T01:04:49.800Z,9.50
2023-05-19T01:07:16.693Z,9.60
2023-05-19T01:09:43.754Z,9.50
2023-05-19T01:12:10.606Z,9.50
2023-05-19T01:14:37.332Z,9.50
2023-05-19T01:17:36.016Z,9.50
2023-05-19T01:20:18.361Z,9.40
2023-05-19T01:22:48.209Z,9.40
2023-05-19T01:25:40.068Z,9.40
2023-05-19T01:28:40.610Z,9.30
2023-05-19T01:31:11.825Z,9.20
2023-05-19T01:33:41.117Z,9.20
2023-05-19T01:36:08.884Z,9.20
2023-05-19T01:38:38.330Z,9.00
2023-05-19T01:41:06.977Z,9.00
2023-05-19T01:43:34.295Z,8.90
2023-05-19T01:46:02.361Z,8.90
2023-05-19T01:48:30.141Z,8.90
2023-05-19T01:50:57.349Z,8.90
2023-05-19T01:53:24.591Z,8.90
2023-05-19T01:55:57.295Z,8.80
2023-05-19T01:58:47.426Z,8.80
2023-05-19T02:01:24.601Z,8.80
2023-05-19T02:04:03.244Z,8.80
2023-05-19T02:07:07.957Z,8.70
2023-05-19T02:09:56.399Z,8.70
2023-05-19T02:12:44.201Z,8.70
2023-05-19T02:15:15.548Z,8.70
2023-05-19T02:17:48.409Z,8.70
2023-05-19T02:20:16.407Z,8.70
2023-05-19T02:22:43.296Z,8.70
2023-05-19T02:25:10.738Z,8.60
2023-05-19T02:27:38.789Z,8.60
2023-05-19T02:30:06.743Z,8.60
2023-05-19T02:32:33.726Z,8.60
2023-05-19T02:35:00.557Z,8.60
2023-05-19T02:37:31.132Z,8.60
2023-05-19T02:39:58.314Z,8.60
2023-05-19T02:42:24.986Z,8.60
2023-05-19T02:44:52.452Z,8.60
2023-05-19T02:47:19.134Z,8.60
2023-05-19T02:49:45.984Z,8.70
2023-05-19T02:52:12.659Z,8.70
2023-05-19T02:54:39.349Z,8.80
2023-05-19T02:57:06.902Z,8.80
2023-05-19T02:59:33.716Z,8.80
2023-05-19T03:02:01.586Z,8.80
2023-05-19T03:04:29.487Z,8.90
2023-05-19T03:06:57.660Z,8.90
2023-05-19T03:09:24.450Z,8.90
2023-05-19T03:11:51.195Z,8.90
2023-05-19T03:14:18.563Z,8.90
2023-05-19T03:16:45.553Z,8.90
2023-05-19T03:19:12.672Z,8.90
2023-05-19T03:21:39.440Z,8.90
2023-05-19T03:24:06.652Z,8.90
2023-05-19T03:26:33.427Z,8.90
2023-05-19T03:29:00.188Z,8.90
2023-05-19T03:31:26.939Z,8.90
2023-05-19T03:33:53.717Z,9.00
2023-05-19T03:36:22.007Z,9.00
2023-05-19T03:38:49.234Z,9.00
2023-05-19T03:41:16.048Z,9.00
2023-05-19T03:43:42.798Z,9.00
2023-05-19T03:46:09.618Z,9.00
2023-05-19T03:48:36.388Z,9.00
2023-05-19T03:51:04.362Z,9.00
2023-05-19T03:53:33.526Z,9.00
2023-05-19T03:56:00.679Z,9.10
2023-05-19T03:58:27.401Z,9.10
2023-05-19T04:00:54.059Z,9.10
2023-05-19T04:03:21.092Z,9.10
2023-05-19T04:05:48.022Z,9.10
2023-05-19T04:08:14.802Z,9.10
2023-05-19T04:10:41.540Z,9.10
2023-05-19T04:13:08.315Z,9.20
2023-05-19T04:15:35.250Z,9.20
2023-05-19T04:18:02.017Z,9.20
2023-05-19T04:20:28.881Z,9.30
2023-05-19T04:22:55.645Z,9.30
2023-05-19T04:25:25.140Z,9.30
2023-05-19T04:27:52.926Z,9.30
2023-05-19T04:30:29.997Z,9.30
2023-05-19T04:32:58.207Z,9.40
2023-05-19T04:35:25.072Z,9.40
2023-05-19T04:37:54.288Z,9.40
2023-05-19T04:40:23.605Z,9.40
2023-05-19T04:42:52.288Z,9.30
2023-05-19T04:45:19.128Z,9.20
2023-05-19T04:47:48.161Z,9.40
2023-05-19T04:50:16.387Z,9.40
2023-05-19T04:52:45.423Z,9.50
2023-05-19T04:55:13.021Z,9.50
2023-05-19T04:57:40.144Z,9.50
2023-05-19T05:00:10.329Z,9.50
2023-05-19T05:02:37.142Z,9.50
2023-05-19T05:05:04.325Z,9.60
2023-05-19T05:07:32.537Z,9.70
2023-05-19T05:09:59.708Z,9.90
2023-05-19T05:12:26.724Z,10.00
2023-05-19T05:14:54.066Z,9.90
2023-05-19T05:17:21.545Z,9.90
2023-05-19T05:19:48.660Z,9.90
2023-05-19T05:22:16.898Z,10.00
2023-05-19T05:24:43.865Z,10.10
2023-05-19T05:27:13.282Z,10.10
2023-05-19T05:29:39.989Z,10.10
2023-05-19T05:32:07.922Z,10.00
2023-05-19T05:34:35.964Z,10.00
2023-05-19T05:37:03.132Z,10.10
2023-05-19T05:39:30.033Z,10.10
2023-05-19T05:41:56.679Z,10.10
2023-05-19T05:44:23.370Z,10.10
2023-05-19T05:46:50.297Z,10.00
2023-05-19T05:49:17.312Z,10.10
2023-05-19T05:51:54.363Z,10.10
2023-05-19T05:54:31.299Z,10.10
2023-05-19T05:56:58.632Z,10.10
2023-05-19T05:59:25.490Z,10.20
2023-05-19T06:01:53.382Z,10.30
2023-05-19T06:04:21.184Z,10.50
2023-05-19T06:06:48.638Z,10.60
2023-05-19T06:09:15.448Z,10.60
2023-05-19T06:11:42.114Z,10.70
2023-05-19T06:14:08.784Z,10.80
2023-05-19T06:16:35.628Z,10.90
2023-05-19T06:19:02.435Z,10.80
2023-05-19T06:21:30.345Z,11.00
2023-05-19T06:23:57.102Z,11.30
2023-05-19T06:26:23.797Z,11.90
2023-05-19T06:28:51.214Z,12.60
2023-05-19T06:31:17.940Z,13.30
2023-05-19T06:33:44.708Z,13.80
2023-05-19T06:36:12.018Z,13.90
2023-05-19T06:38:39.575Z,13.60
2023-05-19T06:41:07.023Z,13.90
2023-05-19T06:43:33.724Z,14.10
2023-05-19T06:46:00.548Z,14.00
2023-05-19T06:48:28.752Z,14.00
2023-05-19T06:50:56.001Z,14.20
2023-05-19T06:53:22.717Z,14.40
2023-05-19T06:55:58.663Z,14.20
2023-05-19T06:58:26.744Z,13.60
2023-05-19T07:00:53.783Z,13.80
2023-05-19T07:03:20.620Z,13.90
2023-05-19T07:05:47.718Z,13.80
2023-05-19T07:08:16.652Z,13.70
2023-05-19T07:10:45.288Z,13.40
2023-05-19T07:13:11.941Z,12.90
2023-05-19T07:15:40.328Z,12.90
2023-05-19T07:18:07.045Z,12.70
2023-05-19T07:20:35.772Z,12.80
2023-05-19T07:23:05.475Z,12.90
2023-05-19T07:25:35.569Z,12.80
2023-05-19T07:28:04.404Z,12.90
2023-05-19T07:30:31.355Z,12.90
2023-05-19T07:32:59.869Z,12.70
2023-05-19T07:35:26.958Z,12.80
2023-05-19T07:37:54.824Z,13.00
2023-05-19T07:40:21.703Z,12.80
2023-05-19T07:42:49.954Z,12.70
2023-05-19T07:45:18.271Z,13.00
2023-05-19T07:47:45.187Z,12.80
2023-05-19T07:50:11.970Z,12.70
2023-05-19T07:52:38.677Z,13.10
2023-05-19T07:55:05.636Z,13.10
2023-05-19T07:57:34.542Z,12.90
2023-05-19T08:00:03.455Z,12.60
2023-05-19T08:02:30.983Z,12.80
2023-05-19T08:04:58.195Z,12.60
2023-05-19T08:07:26.794Z,12.10
2023-05-19T08:09:53.577Z,12.10
2023-05-19T08:12:20.905Z,12.10
2023-05-19T08:14:47.624Z,12.10
2023-05-19T08:17:16.092Z,11.90
2023-05-19T08:19:42.779Z,11.80
2023-05-19T08:22:09.528Z,11.80
2023-05-19T08:24:36.564Z,11.80
2023-05-19T08:27:04.864Z,11.90
2023-05-19T08:29:32.939Z,11.80
2023-05-19T08:32:00.268Z,11.60
2023-05-19T08:34:26.978Z,11.60
2023-05-19T08:36:55.251Z,11.70
2023-05-19T08:39:28.103Z,11.80
2023-05-19T08:41:55.309Z,11.80
2023-05-19T08:44:22.569Z,11.80
2023-05-19T08:46:50.629Z,11.80
2023-05-19T08:49:25.690Z,11.80
2023-05-19T08:52:15.683Z,12.00
2023-05-19T08:57:36.248Z,12.40
2023-05-19T09:00:09.512Z,12.20
2023-05-19T09:02:46.624Z,12.20
2023-05-19T09:05:24.809Z,12.50
2023-05-19T09:07:51.564Z,12.40
2023-05-19T09:10:18.379Z,12.20
2023-05-19T09:12:47.554Z,12.30
2023-05-19T09:15:19.121Z,12.30
2023-05-19T09:17:48.912Z,12.00
2023-05-19T09:20:17.400Z,12.20
2023-05-19T09:22:48.163Z,12.30
2023-05-19T09:25:26.297Z,12.30
2023-05-19T09:27:54.972Z,12.40
2023-05-19T09:30:21.662Z,12.60
2023-05-19T09:32:48.433Z,12.60
2023-05-19T09:35:20.637Z,12.80
2023-05-19T09:37:49.277Z,12.80
2023-05-19T09:40:16.234Z,12.90
2023-05-19T09:42:46.718Z,13.00
2023-05-19T09:45:13.565Z,13.30
2023-05-19T09:47:43.958Z,13.50
2023-05-19T09:50:12.587Z,13.80
2023-05-19T09:52:42.714Z,14.30
2023-05-19T09:55:11.276Z,14.30
2023-05-19T09:57:38.960Z,13.90
2023-05-19T10:00:19.591Z,14.00
2023-05-19T10:02:47.898Z,14.20
2023-05-19T10:05:17.634Z,13.40
2023-05-19T10:07:45.809Z,13.30
2023-05-19T10:10:14.066Z,13.20
2023-05-19T10:12:41.998Z,13.20
2023-05-19T10:15:18.056Z,13.10
2023-05-19T10:17:45.667Z,13.10
2023-05-19T10:20:14.460Z,13.30
2023-05-19T10:22:42.953Z,13.20
2023-05-19T10:25:11.237Z,13.40
2023-05-19T10:27:57.803Z,13.20
2023-05-19T10:30:33.150Z,13.30
2023-05-19T10:33:03.386Z,13.70
2023-05-19T10:36:09.119Z,13.90
2023-05-19T10:39:00.595Z,13.90
2023-05-19T10:41:29.424Z,13.80
2023-05-19T10:44:04.966Z,13.90
2023-05-19T10:46:31.911Z,13.70
2023-05-19T10:49:01.617Z,13.50
2023-05-19T10:51:32.129Z,13.50
2023-05-19T10:54:02.778Z,13.50
2023-05-19T10:56:34.518Z,13.60
2023-05-19T10:59:02.195Z,13.60
2023-05-19T11:01:35.431Z,13.70
2023-05-19T11:04:15.084Z,13.60
2023-05-19T11:06:53.392Z,13.70
2023-05-19T11:09:31.091Z,13.60
2023-05-19T11:12:05.123Z,13.60
2023-05-19T11:14:32.706Z,13.60
2023-05-19T11:17:00.580Z,13.40
2023-05-19T11:19:35.042Z,13.10
2023-05-19T11:22:09.988Z,12.80
2023-05-19T11:24:51.174Z,12.90
2023-05-19T11:27:19.282Z,12.80
2023-05-19T11:29:48.885Z,12.90
2023-05-19T11:32:16.497Z,12.70
2023-05-19T11:34:45.027Z,12.80
2023-05-19T11:37:14.768Z,12.90
2023-05-19T11:39:41.711Z,12.70
2023-05-19T11:42:11.772Z,12.90
2023-05-19T11:44:38.720Z,12.90
2023-05-19T11:47:06.183Z,13.00
2023-05-19T11:49:33.059Z,13.00
2023-05-19T11:52:04.440Z,13.20
2023-05-19T11:54:33.032Z,13.30
2023-05-19T11:57:04.407Z,13.40
2023-05-19T11:59:35.982Z,13.70
2023-05-19T12:02:19.773Z,13.70
2023-05-19T12:04:48.028Z,13.60
2023-05-19T12:07:19.865Z,13.50
2023-05-19T12:09:49.291Z,13.60
2023-05-19T12:12:20.502Z,13.60
2023-05-19T12:14:48.843Z,13.40
2023-05-19T12:17:17.638Z,13.40
2023-05-19T12:19:45.566Z,13.40
2023-05-19T12:22:13.205Z,13.40
2023-05-19T12:24:40.611Z,13.50
2023-05-19T12:27:14.048Z,13.30
2023-05-19T12:29:41.097Z,13.20
2023-05-19T12:32:10.119Z,13.40
2023-05-19T12:34:38.219Z,13.20
2023-05-19T12:37:07.550Z,13.20
2023-05-19T12:39:36.085Z,13.50
2023-05-19T12:42:04.279Z,13.20
2023-05-19T12:44:33.908Z,13.00
2023-05-19T12:47:04.961Z,13.10
2023-05-19T12:49:32.264Z,13.20
2023-05-19T12:52:03.511Z,13.40
2023-05-19T12:54:35.533Z,13.40
2023-05-19T12:57:05.017Z,13.50
2023-05-19T12:59:38.692Z,13.30
2023-05-19T13:02:06.660Z,13.30
2023-05-19T13:04:33.591Z,13.50
2023-05-19T13:07:00.458Z,13.70
2023-05-19T13:09:29.781Z,13.80
2023-05-19T13:11:56.503Z,14.00
2023-05-19T13:14:24.746Z,14.20
2023-05-19T13:16:51.471Z,14.30
2023-05-19T13:21:51.109Z,14.50
2023-05-19T13:24:18.774Z,14.70
2023-05-19T13:26:48.127Z,14.70
2023-05-19T13:29:17.131Z,14.40
2023-05-19T13:31:43.816Z,14.50
2023-05-19T13:34:10.562Z,14.70
2023-05-19T13:36:37.355Z,14.90
2023-05-19T13:39:04.133Z,15.00
2023-05-19T13:41:30.902Z,14.80
2023-05-19T13:44:01.080Z,14.80
2023-05-19T13:46:40.766Z,15.10
2023-05-19T13:49:11.725Z,15.10
2023-05-19T13:51:39.850Z,14.90
2023-05-19T13:54:06.540Z,14.80
2023-05-19T13:56:35.768Z,14.70
2023-05-19T13:59:03.918Z,14.90
2023-05-19T14:01:30.877Z,14.70
2023-05-19T14:03:57.823Z,14.60
2023-05-19T14:06:24.835Z,14.70
2023-05-19T14:08:51.512Z,14.90
2023-05-19T14:11:21.757Z,15.10
2023-05-19T14:13:54.930Z,15.30
2023-05-19T14:16:23.011Z,15.50
2023-05-19T14:18:49.821Z,15.60
2023-05-19T14:21:16.540Z,15.50
2023-05-19T14:23:43.280Z,15.80
2023-05-19T14:26:10.095Z,16.20
2023-05-19T14:28:37.587Z,15.70
2023-05-19T14:31:04.389Z,15.70
2023-05-19T14:33:35.021Z,15.60
2023-05-19T14:36:02.165Z,15.40
2023-05-19T14:38:30.793Z,15.30
2023-05-19T14:40:57.538Z,15.30
2023-05-19T14:43:25.579Z,15.40
2023-05-19T14:45:52.403Z,15.30
2023-05-19T14:48:19.267Z,15.40
2023-05-19T14:50:48.417Z,15.80
2023-05-19T14:53:15.438Z,15.80
2023-05-19T14:55:42.797Z,16.00
2023-05-19T14:58:23.676Z,16.20
2023-05-19T15:00:54.105Z,15.90
2023-05-19T15:03:22.368Z,16.00
2023-05-19T15:05:49.356Z,16.10
2023-05-19T15:08:16.113Z,15.80
2023-05-19T15:10:44.715Z,16.00
2023-05-19T15:13:13.595Z,16.00
2023-05-19T15:15:40.378Z,16.00
2023-05-19T15:18:07.144Z,16.10
2023-05-19T15:20:34.108Z,15.80
2023-05-19T15:23:00.923Z,15.80
2023-05-19T15:25:27.629Z,15.80
2023-05-19T15:27:54.332Z,15.80
2023-05-19T15:30:21.413Z,16.00
2023-05-19T15:32:48.116Z,16.10
2023-05-19T15:35:15.675Z,16.10
2023-05-19T15:37:42.336Z,15.90
2023-05-19T15:40:10.978Z,15.70
2023-05-19T15:42:37.697Z,16.00
2023-05-19T15:45:06.459Z,16.00
2023-05-19T15:47:33.173Z,16.10
2023-05-19T15:49:59.974Z,16.00
2023-05-19T15:52:26.716Z,16.30
2023-05-19T15:54:55.308Z,16.40
2023-05-19T15:57:22.025Z,16.40
2023-05-19T15:59:48.845Z,16.30
2023-05-19T16:02:15.951Z,16.50
2023-05-19T16:04:42.745Z,16.40
2023-05-19T16:07:09.484Z,16.10
2023-05-19T16:09:36.130Z,16.00
2023-05-19T16:12:03.074Z,16.10
2023-05-19T16:14:33.208Z,16.00
2023-05-19T16:17:03.459Z,16.20
2023-05-19T16:19:30.448Z,16.10
2023-05-19T16:21:58.345Z,16.20
2023-05-19T16:24:25.036Z,16.20
2023-05-19T16:26:55.237Z,15.90
2023-05-19T16:29:21.980Z,15.80
2023-05-19T16:31:48.763Z,15.80
2023-05-19T16:34:15.699Z,16.00
2023-05-19T16:36:43.976Z,16.00
2023-05-19T16:39:10.730Z,16.00
2023-05-19T16:41:37.418Z,16.00
2023-05-19T16:44:04.145Z,15.90
2023-05-19T16:46:31.681Z,15.80
2023-05-19T16:48:58.561Z,15.90
2023-05-19T16:51:25.375Z,16.00
2023-05-19T16:53:52.555Z,16.10
2023-05-19T16:56:19.245Z,16.00
2023-05-19T16:58:46.358Z,15.90
2023-05-19T17:01:14.759Z,15.80
2023-05-19T17:03:41.479Z,15.60
2023-05-19T17:06:09.837Z,15.70
2023-05-19T17:08:36.559Z,15.70
2023-05-19T17:11:03.650Z,15.80
2023-05-19T17:13:33.533Z,15.80
2023-05-19T17:16:00.284Z,15.80
2023-05-19T17:18:27.050Z,15.80
2023-05-19T17:20:53.942Z,15.80
2023-05-19T17:23:20.638Z,15.70
2023-05-19T17:25:47.743Z,15.80
2023-05-19T17:28:21.117Z,15.60
2023-05-19T17:30:47.798Z,15.70
2023-05-19T17:33:14.547Z,15.70
2023-05-19T17:35:41.409Z,15.80
2023-05-19T17:38:08.112Z,15.80
2023-05-19T17:40:35.615Z,15.70
2023-05-19T17:43:03.463Z,15.60
2023-05-19T17:45:30.489Z,15.60
2023-05-19T17:47:57.292Z,15.70
2023-05-19T17:50:24.105Z,15.60
2023-05-19T17:52:51.070Z,15.70
2023-05-19T17:55:18.779Z,15.60
2023-05-19T17:57:46.299Z,15.60
2023-05-19T18:00:14.034Z,15.60
2023-05-19T18:02:41.030Z,15.50
2023-05-19T18:05:08.464Z,15.40
2023-05-19T18:07:39.284Z,15.40
2023-05-19T18:10:09.962Z,15.40
2023-05-19T18:12:36.646Z,15.30
2023-05-19T18:15:05.493Z,15.40
2023-05-19T18:17:32.331Z,15.40
2023-05-19T18:19:59.046Z,15.30
2023-05-19T18:22:26.660Z,15.30
2023-05-19T18:24:53.341Z,15.40
2023-05-19T18:27:20.023Z,15.40
2023-05-19T18:29:47.597Z,15.40
2023-05-19T18:32:18.241Z,15.30
2023-05-19T18:34:44.972Z,15.30
2023-05-19T18:37:12.462Z,15.30
2023-05-19T18:39:39.200Z,15.30
2023-05-19T18:42:06.080Z,15.20
2023-05-19T18:44:33.861Z,15.10
2023-05-19T18:47:01.134Z,15.10
2023-05-19T18:49:27.840Z,15.10
2023-05-19T18:51:54.538Z,15.00
2023-05-19T18:54:21.805Z,15.00
2023-05-19T18:56:50.345Z,15.00
2023-05-19T18:59:17.191Z,15.10
2023-05-19T19:01:44.025Z,15.10
2023-05-19T19:04:12.818Z,15.10
2023-05-19T19:06:39.737Z,15.10
2023-05-19T19:09:08.952Z,15.20
2023-05-19T19:11:35.831Z,15.10
2023-05-19T19:14:02.675Z,15.00
2023-05-19T19:16:29.470Z,15.10
2023-05-19T19:18:56.441Z,15.10
2023-05-19T19:21:24.175Z,15.10
2023-05-19T19:23:55.726Z,15.10
2023-05-19T19:26:29.064Z,15.10
2023-05-19T19:28:56.586Z,15.00
2023-05-19T19:31:25.885Z,15.00
2023-05-19T19:33:52.642Z,15.00
2023-05-19T19:36:19.352Z,15.00
2023-05-19T19:38:46.258Z,14.90
2023-05-19T19:41:12.950Z,14.90
2023-05-19T19:43:39.643Z,14.90
2023-05-19T19:46:08.038Z,14.90
2023-05-19T19:48:34.821Z,15.00
2023-05-19T19:51:01.564Z,14.90
2023-05-19T19:53:28.275Z,14.90
2023-05-19T19:56:02.386Z,14.90
2023-05-19T19:58:29.297Z,14.80
2023-05-19T20:01:00.220Z,14.70
2023-05-19T20:03:27.093Z,14.60
2023-05-19T20:05:55.825Z,14.60
2023-05-19T20:08:23.635Z,14.60
2023-05-19T20:10:50.524Z,14.50
2023-05-19T20:13:19.717Z,14.60
2023-05-19T20:15:46.987Z,14.60
2023-05-19T20:18:13.788Z,14.60
2023-05-19T20:20:41.007Z,14.50
2023-05-19T20:23:08.184Z,14.50
2023-05-19T20:25:54.459Z,14.50
2023-05-19T20:28:25.837Z,14.50
2023-05-19T20:30:52.533Z,14.50
2023-05-19T20:33:19.318Z,14.50
2023-05-19T20:35:45.993Z,14.50
2023-05-19T20:38:12.637Z,14.40
2023-05-19T20:40:39.480Z,14.40
2023-05-19T20:43:06.383Z,14.40
2023-05-19T20:45:33.360Z,14.30
2023-05-19T20:48:00.697Z,14.30
2023-05-19T20:50:27.499Z,14.30
2023-05-19T20:52:54.368Z,14.30
2023-05-19T20:55:21.199Z,14.20
2023-05-19T20:57:48.095Z,14.30
2023-05-19T21:00:16.145Z,14.30
2023-05-19T21:02:42.915Z,14.30
2023-05-19T21:05:09.663Z,14.30
2023-05-19T21:07:38.758Z,14.20
2023-05-19T21:10:06.212Z,14.20
2023-05-19T21:12:34.225Z,14.20
2023-05-19T21:15:02.160Z,14.10
2023-05-19T21:17:29.134Z,14.10
2023-05-19T21:19:59.437Z,14.00
2023-05-19T21:22:26.684Z,14.10
2023-05-19T21:24:54.173Z,14.00
2023-05-19T21:27:21.027Z,14.00
2023-05-19T21:29:51.600Z,13.90
2023-05-19T21:32:18.975Z,14.00
2023-05-19T21:34:46.006Z,14.00
2023-05-19T21:37:12.881Z,14.00
2023-05-19T21:39:39.564Z,13.90
2023-05-19T21:42:06.403Z,13.80
2023-05-19T21:44:33.197Z,13.80
2023-05-19T21:46:59.917Z,13.80
2023-05-19T21:49:26.623Z,13.80
2023-05-19T21:51:53.342Z,13.70
2023-05-19T21:54:20.143Z,13.60
2023-05-19T21:56:46.791Z,13.60
2023-05-19T21:59:13.537Z,13.50
2023-05-19T22:01:40.924Z,13.50
2023-05-19T22:04:09.675Z,13.50
2023-05-19T22:06:36.510Z,13.40
2023-05-19T22:09:03.546Z,13.40
2023-05-19T22:11:30.266Z,13.40
2023-05-19T22:13:56.969Z,13.30
2023-05-19T22:16:23.977Z,13.30
2023-05-19T22:18:50.958Z,13.20
2023-05-19T22:21:17.922Z,13.10
2023-05-19T22:23:44.856Z,13.00
2023-05-19T22:26:11.634Z,13.00
2023-05-19T22:28:38.580Z,12.90
2023-05-19T22:31:05.351Z,12.90
2023-05-19T22:33:32.032Z,12.90
2023-05-19T22:35:58.731Z,12.80
2023-05-19T22:38:25.514Z,12.80
2023-05-19T22:40:52.248Z,12.80
2023-05-19T22:43:18.943Z,12.70
2023-05-19T22:45:46.170Z,12.70
2023-05-19T22:48:12.916Z,12.60
2023-05-19T22:50:39.788Z,12.60
2023-05-19T22:53:06.416Z,12.50
2023-05-19T22:55:33.348Z,12.50
2023-05-19T22:58:00.267Z,12.50
2023-05-19T23:00:26.938Z,12.60
2023-05-19T23:02:53.663Z,12.60
2023-05-19T23:05:20.424Z,12.60
2023-05-19T23:07:47.088Z,12.60
2023-05-19T23:10:13.732Z,12.50
2023-05-19T23:12:40.512Z,12.60
2023-05-19T23:15:08.257Z,12.50
2023-05-19T23:17:35.472Z,12.50
2023-05-19T23:20:02.789Z,12.50
2023-05-19T23:22:29.508Z,12.50
2023-05-19T23:24:56.247Z,12.40
2023-05-19T23:27:23.098Z,12.40
2023-05-19T23:29:51.066Z,12.40
2023-05-19T23:32:17.800Z,12.30
2023-05-19T23:34:47.320Z,12.30
2023-05-19T23:37:14.024Z,12.30
2023-05-19T23:39:40.725Z,12.30
2023-05-19T23:42:07.467Z,12.30
2023-05-19T23:44:34.267Z,12.30
2023-05-19T23:47:01.060Z,12.20
2023-05-19T23:49:27.820Z,12.20
2023-05-19T23:51:54.587Z,12.20
2023-05-19T23:54:21.301Z,12.20
2023-05-19T23:56:48.033Z,12.20
2023-05-19T23:59:14.719Z,12.20
